createdAt,value
2022-11-24T04:45:14.922Z,10.30
2022-11-24T04:47:41.973Z,10.30
2022-11-24T04:50:09.127Z,10.30
2022-11-24T04:52:36.141Z,10.20
2022-11-24T04:55:03.221Z,10.20
2022-11-24T04:57:30.160Z,10.20
2022-11-24T04:59:57.337Z,10.20
2022-11-24T05:02:24.407Z,10.00
2022-11-24T05:04:51.387Z,10.10
2022-11-24T05:07:19.463Z,10.10
2022-11-24T05:10:05.573Z,10.10
2022-11-24T05:12:32.728Z,10.20
2022-11-24T05:15:00.883Z,10.20
2022-11-24T05:17:32.107Z,10.30
2022-11-24T05:19:59.493Z,10.30
2022-11-24T05:22:28.211Z,10.20
2022-11-24T05:24:55.252Z,10.20
2022-11-24T05:27:22.289Z,10.20
2022-11-24T05:29:49.233Z,10.20
2022-11-24T05:32:16.177Z,10.40
2022-11-24T05:34:43.376Z,10.20
2022-11-24T05:37:10.421Z,10.20
2022-11-24T05:39:37.392Z,10.20
2022-11-24T05:42:25.382Z,10.30
2022-11-24T05:44:53.116Z,10.20
2022-11-24T05:47:20.543Z,10.20
2022-11-24T05:49:47.487Z,10.20
2022-11-24T05:52:14.840Z,10.20
2022-11-24T05:54:42.219Z,10.20
2022-11-24T05:57:09.424Z,10.20
2022-11-24T05:59:36.545Z,10.20
2022-11-24T06:02:03.599Z,10.20
2022-11-24T06:04:31.237Z,10.20
2022-11-24T06:06:58.418Z,10.20
2022-11-24T06:09:25.357Z,10.20
2022-11-24T06:11:52.368Z,10.20
2022-11-24T06:14:19.401Z,10.20
2022-11-24T06:16:47.271Z,10.20
2022-11-24T06:19:14.302Z,10.30
2022-11-24T06:21:41.274Z,10.30
2022-11-24T06:24:08.362Z,10.30
2022-11-24T06:26:35.373Z,10.30
2022-11-24T06:29:02.458Z,10.30
2022-11-24T06:31:29.515Z,10.30
2022-11-24T06:33:56.484Z,10.30
2022-11-24T06:36:23.487Z,10.30
2022-11-24T06:38:50.483Z,10.30
2022-11-24T06:41:18.243Z,10.30
2022-11-24T06:43:45.739Z,10.20
2022-11-24T06:46:13.115Z,10.20
2022-11-24T06:48:40.185Z,10.40
2022-11-24T06:51:08.663Z,10.20
2022-11-24T06:53:39.288Z,10.20
2022-11-24T06:56:13.772Z,10.30
2022-11-24T06:58:43.505Z,10.40
2022-11-24T07:01:14.183Z,10.60
2022-11-24T07:03:41.726Z,10.40
2022-11-24T07:06:08.981Z,10.50
2022-11-24T07:08:35.941Z,10.50
2022-11-24T07:11:06.180Z,10.40
2022-11-24T07:13:33.563Z,10.50
2022-11-24T07:16:00.921Z,10.50
2022-11-24T07:18:28.007Z,10.70
2022-11-24T07:20:55.021Z,10.60
2022-11-24T07:23:22.048Z,10.60
2022-11-24T07:25:49.525Z,10.50
2022-11-24T07:28:16.481Z,10.60
2022-11-24T07:30:43.480Z,10.60
2022-11-24T07:33:10.582Z,10.60
2022-11-24T07:35:37.604Z,10.70
2022-11-24T07:38:04.618Z,10.70
2022-11-24T07:40:31.642Z,10.80
2022-11-24T07:43:00.274Z,10.80
2022-11-24T07:45:27.708Z,10.70
2022-11-24T07:47:54.704Z,10.80
2022-11-24T07:50:21.647Z,10.80
2022-11-24T07:52:48.653Z,10.80
2022-11-24T07:55:15.604Z,10.80
2022-11-24T07:57:42.668Z,10.80
2022-11-24T08:00:10.276Z,10.80
2022-11-24T08:02:37.457Z,10.80
2022-11-24T08:05:04.837Z,10.80
2022-11-24T08:07:33.053Z,10.80
2022-11-24T08:10:00.163Z,10.90
2022-11-24T08:12:27.163Z,10.80
2022-11-24T08:14:54.161Z,10.80
2022-11-24T08:17:21.121Z,10.90
2022-11-24T08:19:48.074Z,10.90
2022-11-24T08:22:15.083Z,10.90
2022-11-24T08:24:46.718Z,10.90
2022-11-24T08:27:14.403Z,10.70
2022-11-24T08:29:41.955Z,10.50
2022-11-24T08:32:09.393Z,10.50
2022-11-24T08:34:36.781Z,10.50
2022-11-24T08:37:06.817Z,10.50
2022-11-24T08:39:34.017Z,10.60
2022-11-24T08:42:00.993Z,10.50
2022-11-24T08:44:28.800Z,10.40
2022-11-24T08:46:55.947Z,10.40
2022-11-24T08:49:23.075Z,10.20
2022-11-24T08:51:51.298Z,10.20
2022-11-24T08:54:21.621Z,10.20
2022-11-24T08:56:49.195Z,10.30
2022-11-24T08:59:16.394Z,10.30
2022-11-24T09:01:43.535Z,10.10
2022-11-24T09:04:10.579Z,10.10
2022-11-24T09:06:37.643Z,10.10
2022-11-24T09:09:04.643Z,10.00
2022-11-24T09:11:33.607Z,10.00
2022-11-24T09:14:00.797Z,10.00
2022-11-24T09:16:29.058Z,9.90
2022-11-24T09:18:59.614Z,10.00
2022-11-24T09:21:26.723Z,10.00
2022-11-24T09:23:54.717Z,10.00
2022-11-24T09:26:21.754Z,9.90
2022-11-24T09:28:50.187Z,10.00
2022-11-24T09:31:17.885Z,10.10
2022-11-24T09:33:45.475Z,10.10
2022-11-24T09:36:13.009Z,10.20
2022-11-24T09:38:40.161Z,10.20
2022-11-24T09:41:25.911Z,10.30
2022-11-24T09:43:55.585Z,10.40
2022-11-24T09:46:22.996Z,10.30
2022-11-24T09:48:51.329Z,10.40
2022-11-24T09:51:19.583Z,10.40
2022-11-24T09:53:51.015Z,10.40
2022-11-24T09:56:22.544Z,10.50
2022-11-24T09:58:59.452Z,10.30
2022-11-24T10:01:29.417Z,10.40
2022-11-24T10:04:01.127Z,10.40
2022-11-24T10:06:38.772Z,10.80
2022-11-24T10:09:14.843Z,10.50
2022-11-24T10:11:57.526Z,10.40
2022-11-24T10:14:47.229Z,10.40
2022-11-24T10:17:24.960Z,10.50
2022-11-24T10:19:51.979Z,10.60
2022-11-24T10:22:31.492Z,10.60
2022-11-24T10:25:07.665Z,10.60
2022-11-24T10:27:37.447Z,10.70
2022-11-24T10:30:11.946Z,10.70
2022-11-24T10:32:41.003Z,10.80
2022-11-24T10:35:31.526Z,10.90
2022-11-24T10:38:01.621Z,11.00
2022-11-24T10:40:56.838Z,11.10
2022-11-24T10:43:26.332Z,11.20
2022-11-24T10:45:53.506Z,11.20
2022-11-24T10:48:22.839Z,11.30
2022-11-24T10:50:52.916Z,11.30
2022-11-24T10:53:29.266Z,11.30
2022-11-24T10:55:56.329Z,11.30
2022-11-24T10:58:23.372Z,11.40
2022-11-24T11:00:50.317Z,11.40
2022-11-24T11:03:19.406Z,11.60
2022-11-24T11:06:12.695Z,11.40
2022-11-24T11:08:40.248Z,11.50
2022-11-24T11:11:22.252Z,11.80
2022-11-24T11:13:52.241Z,11.60
2022-11-24T11:16:24.135Z,11.70
2022-11-24T11:18:51.696Z,11.70
2022-11-24T11:21:33.226Z,11.70
2022-11-24T11:24:01.076Z,11.70
2022-11-24T11:26:32.025Z,11.70
2022-11-24T11:34:46.650Z,11.80
2022-11-24T11:37:14.604Z,11.80
2022-11-24T11:39:48.445Z,11.80
2022-11-24T11:42:53.783Z,11.70
2022-11-24T11:45:17.241Z,11.90
2022-11-24T11:48:01.199Z,12.00
2022-11-24T11:51:15.105Z,12.00
2022-11-24T11:53:36.743Z,11.90
2022-11-24T11:56:06.642Z,12.00
2022-11-24T11:58:36.366Z,12.00
2022-11-24T12:01:06.226Z,12.00
2022-11-24T12:03:46.892Z,12.00
2022-11-24T12:06:16.930Z,12.00
2022-11-24T12:09:18.802Z,12.10
2022-11-24T12:11:43.358Z,12.20
2022-11-24T12:14:30.935Z,12.20
2022-11-24T12:17:16.479Z,12.30
2022-11-24T12:19:49.439Z,12.30
2022-11-24T12:22:36.744Z,12.40
2022-11-24T12:25:18.712Z,12.40
2022-11-24T12:27:51.522Z,12.50
2022-11-24T12:30:20.582Z,12.50
2022-11-24T12:33:05.936Z,12.50
2022-11-24T12:35:37.176Z,12.60
2022-11-24T12:38:10.199Z,12.60
2022-11-24T12:40:40.926Z,12.60
2022-11-24T12:43:32.407Z,12.60
2022-11-24T12:46:13.941Z,12.70
2022-11-24T12:48:52.900Z,12.70
2022-11-24T12:51:22.696Z,12.50
2022-11-24T12:53:50.662Z,12.30
2022-11-24T12:56:20.263Z,12.20
2022-11-24T12:58:50.185Z,12.50
2022-11-24T13:01:22.977Z,12.30
2022-11-24T13:03:50.481Z,12.40
2022-11-24T13:06:27.348Z,12.30
2022-11-24T13:08:54.286Z,12.30
2022-11-24T13:11:21.271Z,12.40
2022-11-24T13:13:57.813Z,12.30
2022-11-24T13:16:59.492Z,12.40
2022-11-24T13:19:15.125Z,12.50
2022-11-24T13:21:50.287Z,12.40
2022-11-24T13:24:18.239Z,12.30
2022-11-24T13:26:48.526Z,12.20
2022-11-24T13:29:25.612Z,12.20
2022-11-24T13:32:15.485Z,12.30
2022-11-24T13:34:42.850Z,12.20
2022-11-24T13:37:31.869Z,12.10
2022-11-24T13:40:03.131Z,12.20
2022-11-24T13:42:43.367Z,12.20
2022-11-24T13:45:31.267Z,12.20
2022-11-24T13:47:58.222Z,12.30
2022-11-24T13:50:45.764Z,12.30
2022-11-24T13:53:16.612Z,12.30
2022-11-24T13:55:53.992Z,12.20
2022-11-24T13:58:27.337Z,12.20
2022-11-24T14:01:14.709Z,12.20
2022-11-24T14:03:47.524Z,12.20
2022-11-24T14:06:30.674Z,12.20
2022-11-24T14:09:01.369Z,12.20
2022-11-24T14:11:28.525Z,12.10
2022-11-24T14:13:55.538Z,12.10
2022-11-24T14:16:23.383Z,12.10
2022-11-24T14:18:51.121Z,12.00
2022-11-24T14:21:32.302Z,12.00
2022-11-24T14:24:05.291Z,12.10
2022-11-24T14:26:36.304Z,12.10
2022-11-24T14:29:07.599Z,12.20
2022-11-24T14:31:34.613Z,12.10
2022-11-24T14:34:15.787Z,12.10
2022-11-24T14:36:43.245Z,11.90
2022-11-24T14:39:14.460Z,12.00
2022-11-24T14:41:42.743Z,12.10
2022-11-24T14:44:15.276Z,12.00
2022-11-24T14:46:42.378Z,11.90
2022-11-24T14:49:16.619Z,12.20
2022-11-24T14:51:45.179Z,12.10
2022-11-24T14:54:16.965Z,12.20
2022-11-24T14:56:55.921Z,12.20
2022-11-24T14:59:24.357Z,12.20
2022-11-24T15:01:51.442Z,12.20
2022-11-24T15:04:54.226Z,12.30
2022-11-24T15:07:12.596Z,12.30
2022-11-24T15:09:48.406Z,12.30
2022-11-24T15:12:34.375Z,12.30
2022-11-24T15:15:02.904Z,12.20
2022-11-24T15:17:30.367Z,12.10
2022-11-24T15:20:10.808Z,12.10
2022-11-24T15:22:37.804Z,12.10
2022-11-24T15:25:24.128Z,12.10
2022-11-24T15:27:51.434Z,12.10
2022-11-24T15:30:18.477Z,12.10
2022-11-24T15:32:52.635Z,12.10
2022-11-24T15:35:19.729Z,12.10
2022-11-24T15:37:46.724Z,12.10
2022-11-24T15:40:13.951Z,12.00
2022-11-24T15:42:41.098Z,12.00
2022-11-24T15:45:09.973Z,11.90
2022-11-24T15:47:36.961Z,12.00
2022-11-24T15:50:04.133Z,11.90
2022-11-24T15:52:31.126Z,11.90
2022-11-24T15:54:58.353Z,11.80
2022-11-24T15:57:25.555Z,11.80
2022-11-24T15:59:53.087Z,11.80
2022-11-24T16:02:21.818Z,11.70
2022-11-24T16:04:49.131Z,11.60
2022-11-24T16:07:16.182Z,11.60
2022-11-24T16:09:43.188Z,11.40
2022-11-24T16:12:10.163Z,11.40
2022-11-24T16:14:37.470Z,11.40
2022-11-24T16:17:05.095Z,11.40
2022-11-24T16:19:34.220Z,11.40
2022-11-24T16:22:06.312Z,11.30
2022-11-24T16:24:33.701Z,11.20
2022-11-24T16:27:00.867Z,11.20
2022-11-24T16:29:27.864Z,11.20
2022-11-24T16:31:54.999Z,11.10
2022-11-24T16:34:22.067Z,11.30
2022-11-24T16:36:49.155Z,11.10
2022-11-24T16:39:16.073Z,11.10
2022-11-24T16:41:43.055Z,11.10
2022-11-24T16:44:10.016Z,11.10
2022-11-24T16:46:37.054Z,11.20
2022-11-24T16:49:04.405Z,10.80
2022-11-24T16:51:34.704Z,10.80
2022-11-24T16:54:02.333Z,10.80
2022-11-24T16:56:29.940Z,10.70
2022-11-24T16:58:56.964Z,10.70
2022-11-24T17:01:26.957Z,10.60
2022-11-24T17:03:53.972Z,10.70
2022-11-24T17:06:21.007Z,10.60
2022-11-24T17:08:48.208Z,10.60
2022-11-24T17:11:16.683Z,10.50
2022-11-24T17:13:45.459Z,10.40
2022-11-24T17:16:14.254Z,10.40
2022-11-24T17:18:41.615Z,10.30
2022-11-24T17:21:12.944Z,10.20
2022-11-24T17:23:40.036Z,10.20
2022-11-24T17:26:08.538Z,10.20
2022-11-24T17:28:36.106Z,10.20
2022-11-24T17:31:06.765Z,10.20
2022-11-24T17:33:34.080Z,10.10
2022-11-24T17:36:01.810Z,10.10
2022-11-24T17:38:30.658Z,10.00
2022-11-24T17:40:57.836Z,9.90
2022-11-24T17:43:24.819Z,9.90
2022-11-24T17:45:55.299Z,10.00
2022-11-24T17:48:22.520Z,10.00
2022-11-24T17:50:58.253Z,10.10
2022-11-24T17:53:25.230Z,10.10
2022-11-24T17:55:52.271Z,10.10
2022-11-24T17:58:19.209Z,10.00
2022-11-24T18:00:46.260Z,10.00
2022-11-24T18:03:13.279Z,10.10
2022-11-24T18:05:40.320Z,9.90
2022-11-24T18:08:07.240Z,9.70
2022-11-24T18:10:34.285Z,9.60
2022-11-24T18:13:02.146Z,9.50
2022-11-24T18:15:29.115Z,9.40
2022-11-24T18:17:56.036Z,9.30
2022-11-24T18:20:22.954Z,9.30
2022-11-24T18:23:05.200Z,9.30
2022-11-24T18:25:33.346Z,9.30
2022-11-24T18:28:00.335Z,9.20
2022-11-24T18:30:27.305Z,9.40
2022-11-24T18:32:54.261Z,9.10
2022-11-24T18:35:21.184Z,9.30
2022-11-24T18:37:48.192Z,9.30
2022-11-24T18:40:15.145Z,9.30
2022-11-24T18:42:42.067Z,9.20
2022-11-24T18:45:09.353Z,9.10
2022-11-24T18:47:36.359Z,9.10
2022-11-24T18:50:03.459Z,9.10
2022-11-24T18:52:30.478Z,9.00
2022-11-24T18:55:03.691Z,8.90
2022-11-24T18:57:31.619Z,9.00
2022-11-24T18:59:59.039Z,9.10
2022-11-24T19:02:26.115Z,9.10
2022-11-24T19:04:53.112Z,9.10
2022-11-24T19:07:20.601Z,9.10
2022-11-24T19:09:47.769Z,9.00
2022-11-24T19:12:14.728Z,9.20
2022-11-24T19:14:41.694Z,9.00
2022-11-24T19:17:08.771Z,9.00
2022-11-24T19:19:35.988Z,9.00
2022-11-24T19:22:03.574Z,9.00
2022-11-24T19:24:30.520Z,9.00
2022-11-24T19:26:57.536Z,8.90
2022-11-24T19:29:24.528Z,8.90
2022-11-24T19:31:53.659Z,8.80
2022-11-24T19:34:20.737Z,8.70
2022-11-24T19:36:47.799Z,8.50
2022-11-24T19:39:15.438Z,8.40
2022-11-24T19:41:42.502Z,8.40
2022-11-24T19:44:11.083Z,8.40
2022-11-24T19:46:39.672Z,8.60
2022-11-24T19:49:08.888Z,8.40
2022-11-24T19:51:38.556Z,8.40
2022-11-24T19:54:07.129Z,8.50
2022-11-24T19:56:35.873Z,8.40
2022-11-24T19:59:04.227Z,8.50
2022-11-24T20:01:36.941Z,8.40
2022-11-24T20:04:06.215Z,8.30
2022-11-24T20:06:34.884Z,8.20
2022-11-24T20:09:02.264Z,8.20
2022-11-24T20:11:29.445Z,8.20
2022-11-24T20:13:56.704Z,8.30
2022-11-24T20:16:29.408Z,8.20
2022-11-24T20:18:57.580Z,8.30
2022-11-24T20:21:25.730Z,8.20
2022-11-24T20:23:54.626Z,8.10
2022-11-24T20:26:25.324Z,8.10
2022-11-24T20:28:53.395Z,8.10
2022-11-24T20:31:27.832Z,8.20
2022-11-24T20:33:54.934Z,8.20
2022-11-24T20:36:23.228Z,8.10
2022-11-24T20:38:51.029Z,8.00
2022-11-24T20:41:19.812Z,7.90
2022-11-24T20:43:47.238Z,7.80
2022-11-24T20:46:18.221Z,7.80
2022-11-24T20:48:46.306Z,7.80
2022-11-24T20:51:17.990Z,7.90
2022-11-24T20:53:44.983Z,7.80
2022-11-24T20:56:16.196Z,7.80
2022-11-24T20:58:43.417Z,7.80
2022-11-24T21:01:10.419Z,7.90
2022-11-24T21:03:42.817Z,7.90
2022-11-24T21:06:11.641Z,7.90
2022-11-24T21:08:39.326Z,7.90
2022-11-24T21:11:06.903Z,7.80
2022-11-24T21:13:35.140Z,7.70
2022-11-24T21:16:18.264Z,7.70
2022-11-24T21:18:46.239Z,7.70
2022-11-24T21:21:13.649Z,7.80
2022-11-24T21:23:40.667Z,7.80
2022-11-24T21:26:13.122Z,7.70
2022-11-24T21:28:42.893Z,7.40
2022-11-24T21:31:11.109Z,7.40
2022-11-24T21:33:42.080Z,7.40
2022-11-24T21:36:09.317Z,7.50
2022-11-24T21:38:36.589Z,7.50
2022-11-24T21:41:04.736Z,7.50
2022-11-24T21:43:32.277Z,7.40
2022-11-24T21:46:02.935Z,7.30
2022-11-24T21:48:30.326Z,7.30
2022-11-24T21:50:58.142Z,7.40
2022-11-24T21:53:25.450Z,7.50
2022-11-24T21:55:55.699Z,7.50
2022-11-24T21:58:22.869Z,7.40
2022-11-24T22:00:50.323Z,7.40
2022-11-24T22:03:18.142Z,7.40
2022-11-24T22:05:57.991Z,7.50
2022-11-24T22:08:25.723Z,7.30
2022-11-24T22:10:53.105Z,7.30
2022-11-24T22:13:20.433Z,7.30
2022-11-24T22:15:47.491Z,7.10
2022-11-24T22:18:14.483Z,7.10
2022-11-24T22:20:41.517Z,7.20
2022-11-24T22:23:08.494Z,7.20
2022-11-24T22:25:35.449Z,7.40
2022-11-24T22:28:02.779Z,7.10
2022-11-24T22:30:29.778Z,7.00
2022-11-24T22:32:56.808Z,7.00
2022-11-24T22:35:23.853Z,7.00
2022-11-24T22:37:51.540Z,7.30
2022-11-24T22:40:18.639Z,7.10
2022-11-24T22:42:45.673Z,7.10
2022-11-24T22:45:12.621Z,7.10
2022-11-24T22:47:39.641Z,7.10
2022-11-24T22:50:07.032Z,7.10
2022-11-24T22:52:34.033Z,7.10
2022-11-24T22:55:01.024Z,7.30
2022-11-24T22:57:27.991Z,7.20
2022-11-24T22:59:54.948Z,7.20
2022-11-24T23:02:21.901Z,7.30
2022-11-24T23:04:48.878Z,7.30
2022-11-24T23:07:15.915Z,7.20
2022-11-24T23:09:42.867Z,7.20
2022-11-24T23:12:09.871Z,7.20
2022-11-24T23:14:37.166Z,7.30
2022-11-24T23:17:04.305Z,7.40
2022-11-24T23:19:31.278Z,7.40
2022-11-24T23:21:58.322Z,7.30
2022-11-24T23:24:25.288Z,7.30
2022-11-24T23:26:52.410Z,7.40
2022-11-24T23:29:19.381Z,7.40
2022-11-24T23:31:46.452Z,7.40
2022-11-24T23:34:13.498Z,7.40
2022-11-24T23:36:40.463Z,7.30
2022-11-24T23:39:08.964Z,7.60
2022-11-24T23:41:35.998Z,7.50
2022-11-24T23:44:03.047Z,7.40
2022-11-24T23:46:30.128Z,7.40
2022-11-24T23:48:57.415Z,7.50
2022-11-24T23:51:24.395Z,7.40
2022-11-24T23:53:51.852Z,7.40
2022-11-24T23:56:20.223Z,7.40
2022-11-24T23:58:47.411Z,7.40
